createdAt,value
2023-02-05T00:02:14.077Z,11.75
2023-02-05T00:04:50.120Z,12.30
2023-02-05T00:07:18.945Z,12.60
2023-02-05T00:09:55.726Z,11.00
2023-02-05T00:12:25.395Z,12.75
2023-02-05T00:14:54.751Z,11.95
2023-02-05T00:17:38.946Z,11.45
2023-02-05T00:20:11.972Z,12.48
2023-02-05T00:22:41.052Z,11.40
2023-02-05T00:25:11.172Z,10.98
2023-02-05T00:27:40.189Z,11.63
2023-02-05T00:30:10.688Z,11.25
2023-02-05T00:32:39.107Z,10.32
2023-02-05T00:35:11.970Z,10.70
2023-02-05T00:37:44.147Z,11.07
2023-02-05T00:40:21.184Z,11.75
2023-02-05T00:42:49.572Z,10.65
2023-02-05T00:45:18.050Z,11.60
2023-02-05T00:47:51.184Z,11.60
2023-02-05T00:50:22.522Z,11.35
2023-02-05T00:52:57.917Z,11.98
2023-02-05T00:55:32.304Z,10.52
2023-02-05T00:58:20.763Z,11.60
2023-02-05T01:00:53.111Z,12.73
2023-02-05T01:03:23.255Z,11.90
2023-02-05T01:05:53.246Z,12.80
2023-02-05T01:08:33.996Z,13.45
2023-02-05T01:11:11.391Z,18.20
2023-02-05T01:13:43.395Z,17.02
2023-02-05T01:16:13.512Z,15.80
2023-02-05T01:18:46.483Z,16.40
2023-02-05T01:21:21.232Z,17.58
2023-02-05T01:23:58.630Z,22.77
2023-02-05T01:26:39.053Z,19.13
2023-02-05T01:29:11.800Z,21.83
2023-02-05T01:31:43.923Z,30.58
2023-02-05T01:34:16.696Z,37.10
2023-02-05T01:36:47.307Z,21.50
2023-02-05T01:39:25.653Z,17.35
2023-02-05T01:42:02.275Z,16.20
2023-02-05T01:44:34.382Z,13.80
2023-02-05T01:47:04.359Z,12.82
2023-02-05T01:49:46.912Z,14.50
2023-02-05T01:52:19.534Z,11.75
2023-02-05T01:54:55.815Z,11.80
2023-02-05T01:57:30.952Z,14.48
2023-02-05T02:00:01.104Z,13.50
2023-02-05T02:02:30.674Z,12.70
2023-02-05T02:05:03.138Z,11.68
2023-02-05T02:07:32.339Z,11.63
2023-02-05T02:10:01.984Z,11.35
2023-02-05T02:12:38.719Z,10.30
2023-02-05T02:15:15.216Z,11.93
2023-02-05T02:17:48.182Z,14.45
2023-02-05T02:20:23.411Z,14.57
2023-02-05T02:23:13.358Z,10.73
2023-02-05T02:26:14.611Z,9.60
2023-02-05T02:28:54.135Z,8.00
2023-02-05T02:31:38.039Z,8.38
2023-02-05T02:34:15.723Z,9.10
2023-02-05T02:36:55.127Z,8.80
2023-02-05T02:39:32.393Z,8.60
2023-02-05T02:42:20.499Z,7.22
2023-02-05T02:44:58.355Z,6.65
2023-02-05T02:47:33.552Z,6.78
2023-02-05T02:50:06.684Z,6.15
2023-02-05T02:52:40.049Z,7.25
2023-02-05T02:55:15.192Z,6.75
2023-02-05T02:57:52.889Z,6.65
2023-02-05T03:00:28.064Z,6.10
2023-02-05T03:03:02.753Z,6.25
2023-02-05T03:05:36.424Z,6.85
2023-02-05T03:08:14.988Z,7.30
2023-02-05T03:10:47.582Z,7.55
2023-02-05T03:13:17.258Z,8.38
2023-02-05T03:15:52.886Z,7.00
2023-02-05T03:18:25.500Z,7.00
2023-02-05T03:20:56.916Z,6.15
2023-02-05T03:23:32.696Z,7.35
2023-02-05T03:26:01.122Z,7.90
2023-02-05T03:28:40.668Z,7.30
2023-02-05T03:31:20.468Z,7.80
2023-02-05T03:34:00.868Z,6.97
2023-02-05T03:36:40.761Z,7.60
2023-02-05T03:39:28.587Z,7.45
2023-02-05T03:42:11.838Z,7.90
2023-02-05T03:45:10.679Z,7.07
2023-02-05T03:47:59.270Z,6.80
2023-02-05T03:50:33.812Z,6.47
2023-02-05T03:53:08.153Z,6.38
2023-02-05T03:55:42.882Z,5.82
2023-02-05T03:58:18.612Z,4.60
2023-02-05T04:00:47.757Z,5.00
2023-02-05T04:03:18.822Z,5.20
2023-02-05T04:05:49.513Z,6.05
2023-02-05T04:08:19.224Z,6.72
2023-02-05T04:10:57.752Z,7.10
2023-02-05T04:13:28.334Z,5.80
2023-02-05T04:16:01.018Z,6.70
2023-02-05T04:18:36.352Z,6.88
2023-02-05T04:21:15.658Z,6.38
2023-02-05T04:23:48.848Z,6.25
2023-02-05T04:26:22.904Z,6.85
2023-02-05T04:29:09.794Z,6.68
2023-02-05T04:31:43.906Z,6.53
2023-02-05T04:34:18.254Z,6.53
2023-02-05T04:36:49.972Z,6.60
2023-02-05T04:39:21.405Z,6.88
2023-02-05T04:41:52.767Z,6.38
2023-02-05T04:44:24.086Z,7.20
2023-02-05T04:46:54.705Z,7.20
2023-02-05T04:49:31.090Z,8.40
2023-02-05T04:52:06.550Z,8.65
2023-02-05T04:54:39.124Z,9.07
2023-02-05T04:57:08.381Z,8.80
2023-02-05T05:07:37.006Z,7.97
2023-02-05T05:10:12.518Z,9.30
2023-02-05T05:15:34.366Z,13.40
2023-02-05T05:18:02.902Z,23.30
2023-02-05T05:20:59.043Z,25.15
2023-02-05T05:23:33.818Z,11.07
2023-02-05T05:26:09.372Z,7.72
2023-02-05T05:28:54.203Z,7.70
2023-02-05T05:31:28.930Z,7.90
2023-02-05T05:33:58.389Z,7.20
2023-02-05T05:36:27.491Z,7.82
2023-02-05T05:39:20.657Z,8.52
2023-02-05T05:42:06.304Z,7.78
2023-02-05T05:44:39.464Z,9.02
2023-02-05T05:47:14.913Z,9.30
2023-02-05T05:49:46.947Z,8.68
2023-02-05T05:52:28.027Z,9.40
2023-02-05T05:55:02.709Z,8.65
2023-02-05T05:57:44.194Z,9.00
2023-02-05T06:00:23.424Z,8.90
2023-02-05T06:03:20.033Z,8.50
2023-02-05T06:05:51.731Z,8.40
2023-02-05T06:08:29.529Z,9.35
2023-02-05T06:11:05.898Z,9.60
2023-02-05T06:13:37.912Z,9.20
2023-02-05T06:16:11.169Z,9.80
2023-02-05T06:18:45.467Z,9.25
2023-02-05T06:21:16.779Z,10.02
2023-02-05T06:23:45.110Z,9.02
2023-02-05T06:26:19.295Z,8.77
2023-02-05T06:28:52.737Z,8.88
2023-02-05T06:31:34.123Z,8.57
2023-02-05T06:34:10.215Z,8.80
2023-02-05T06:36:54.610Z,9.05
2023-02-05T06:39:30.523Z,8.43
2023-02-05T06:45:15.586Z,8.30
2023-02-05T06:47:46.196Z,9.88
2023-02-05T06:50:17.287Z,9.13
2023-02-05T06:52:49.577Z,8.90
2023-02-05T06:55:28.671Z,9.23
2023-02-05T06:57:59.829Z,8.68
2023-02-05T07:00:36.494Z,8.48
2023-02-05T07:03:22.542Z,9.68
2023-02-05T07:05:57.271Z,9.95
2023-02-05T07:08:50.638Z,8.90
2023-02-05T07:11:32.901Z,11.30
2023-02-05T07:14:07.980Z,9.75
2023-02-05T07:16:40.721Z,12.48
2023-02-05T07:19:09.793Z,13.85
2023-02-05T07:21:40.949Z,16.40
2023-02-05T07:24:09.556Z,13.70
2023-02-05T07:26:39.273Z,28.63
2023-02-05T07:29:10.109Z,28.50
2023-02-05T07:31:39.017Z,27.30
2023-02-05T07:34:07.687Z,22.20
2023-02-05T07:36:37.692Z,16.55
2023-02-05T07:39:09.063Z,12.00
2023-02-05T07:41:43.880Z,11.07
2023-02-05T07:44:26.085Z,9.70
2023-02-05T07:46:56.989Z,9.57
2023-02-05T07:49:26.441Z,8.38
2023-02-05T07:52:01.462Z,8.95
2023-02-05T07:54:30.276Z,9.80
2023-02-05T07:57:04.438Z,10.30
2023-02-05T07:59:38.797Z,10.13
2023-02-05T08:02:12.933Z,10.70
2023-02-05T08:04:47.789Z,9.20
2023-02-05T08:07:21.460Z,9.85
2023-02-05T08:09:56.274Z,9.93
2023-02-05T08:12:52.151Z,10.23
2023-02-05T08:15:28.900Z,11.25
2023-02-05T08:17:58.144Z,10.15
2023-02-05T08:20:28.680Z,9.75
2023-02-05T08:23:05.231Z,9.15
2023-02-05T08:25:36.664Z,9.90
2023-02-05T08:28:32.045Z,9.32
2023-02-05T08:31:22.187Z,10.57
2023-02-05T08:34:21.294Z,9.13
2023-02-05T08:37:06.109Z,8.00
2023-02-05T08:39:37.625Z,9.00
2023-02-05T08:42:12.224Z,10.68
2023-02-05T08:44:41.629Z,9.20
2023-02-05T08:47:20.560Z,9.55
2023-02-05T08:49:52.494Z,10.60
2023-02-05T08:52:26.221Z,9.57
2023-02-05T08:54:59.920Z,10.15
2023-02-05T08:57:40.666Z,12.23
2023-02-05T09:00:47.234Z,11.30
2023-02-05T09:04:01.797Z,11.55
2023-02-05T09:06:35.632Z,11.18
2023-02-05T09:09:07.335Z,11.10
2023-02-05T09:11:37.800Z,11.15
2023-02-05T09:14:07.004Z,10.98
2023-02-05T09:16:36.287Z,11.38
2023-02-05T09:19:06.934Z,11.60
2023-02-05T09:21:36.227Z,13.93
2023-02-05T09:24:05.003Z,21.35
2023-02-05T09:26:33.866Z,19.17
2023-02-05T09:29:03.092Z,16.10
2023-02-05T09:31:35.295Z,13.93
2023-02-05T09:34:06.760Z,14.88
2023-02-05T09:36:35.463Z,15.30
2023-02-05T09:39:25.638Z,12.90
2023-02-05T09:42:06.266Z,14.63
2023-02-05T09:45:05.658Z,14.23
2023-02-05T09:47:40.436Z,17.67
2023-02-05T09:50:29.563Z,14.68
2023-02-05T09:53:06.223Z,15.13
2023-02-05T09:55:42.597Z,16.85
2023-02-05T09:58:17.087Z,17.35
2023-02-05T10:00:48.164Z,18.25
2023-02-05T10:03:26.160Z,24.10
2023-02-05T10:06:14.586Z,24.20
2023-02-05T10:08:50.155Z,22.35
2023-02-05T10:11:35.855Z,20.33
2023-02-05T10:14:11.526Z,15.60
2023-02-05T10:17:08.876Z,14.32
2023-02-05T10:20:17.068Z,17.10
2023-02-05T10:23:04.356Z,15.45
2023-02-05T10:26:03.716Z,23.30
2023-02-05T10:29:02.124Z,18.95
2023-02-05T10:31:42.109Z,16.40
2023-02-05T10:34:31.394Z,16.92
2023-02-05T10:37:00.757Z,16.77
2023-02-05T10:39:32.451Z,19.25
2023-02-05T10:42:06.278Z,19.42
2023-02-05T10:44:39.973Z,27.85
2023-02-05T10:47:14.836Z,24.55
2023-02-05T10:49:49.492Z,26.38
2023-02-05T10:52:32.290Z,19.83
2023-02-05T10:55:13.104Z,24.35
2023-02-05T10:57:45.167Z,19.83
2023-02-05T11:03:37.953Z,19.40
2023-02-05T11:22:11.779Z,20.50
2023-02-05T11:24:48.690Z,28.40
2023-02-05T11:31:45.534Z,31.27
2023-02-05T11:34:58.498Z,22.95
2023-02-05T12:05:23.388Z,17.65
2023-02-05T12:08:30.684Z,17.90
2023-02-05T12:11:09.715Z,24.35
2023-02-05T12:13:53.560Z,24.55
2023-02-05T12:16:53.823Z,19.90
2023-02-05T12:19:27.896Z,23.77
2023-02-05T12:22:05.469Z,21.10
2023-02-05T12:25:05.284Z,26.20
2023-02-05T12:27:54.327Z,25.95
2023-02-05T12:30:47.891Z,22.90
2023-02-05T12:33:39.319Z,25.68
2023-02-05T12:36:33.451Z,19.60
2023-02-05T12:39:25.279Z,22.42
2023-02-05T12:42:06.424Z,20.23
2023-02-05T12:45:07.009Z,21.75
2023-02-05T12:47:52.492Z,21.88
2023-02-05T12:50:43.119Z,21.25
2023-02-05T12:53:38.864Z,26.63
2023-02-05T12:56:47.670Z,29.02
2023-02-05T12:59:21.559Z,25.42
2023-02-05T13:01:57.806Z,22.75
2023-02-05T13:04:32.230Z,36.00
2023-02-05T13:07:08.678Z,26.75
2023-02-05T13:09:45.882Z,24.80
2023-02-05T13:12:23.396Z,20.88
2023-02-05T13:15:01.873Z,20.15
2023-02-05T13:17:41.099Z,20.65
2023-02-05T13:20:45.958Z,26.63
2023-02-05T13:23:36.259Z,22.42
2023-02-05T13:26:23.967Z,23.52
2023-02-05T13:28:58.003Z,24.85
2023-02-05T13:31:33.212Z,26.00
2023-02-05T13:34:10.802Z,28.10
2023-02-05T13:36:58.757Z,24.25
2023-02-05T13:40:07.931Z,26.67
2023-02-05T13:43:14.467Z,27.33
2023-02-05T13:46:19.062Z,24.70
2023-02-05T13:49:07.980Z,32.78
2023-02-05T13:51:54.021Z,32.45
2023-02-05T13:54:55.167Z,31.83
2023-02-05T13:57:57.328Z,25.67
2023-02-05T14:00:28.450Z,25.95
2023-02-05T14:02:59.310Z,25.98
2023-02-05T14:05:35.636Z,30.08
2023-02-05T14:08:10.330Z,28.20
2023-02-05T14:10:45.284Z,27.20
2023-02-05T14:13:23.606Z,29.98
2023-02-05T14:15:57.564Z,25.20
2023-02-05T14:18:53.303Z,25.67
2023-02-05T14:22:02.725Z,27.25
2023-02-05T14:24:58.199Z,23.55
2023-02-05T14:27:49.874Z,22.90
2023-02-05T14:30:51.566Z,23.60
2023-02-05T14:33:42.639Z,23.95
2023-02-05T14:36:33.541Z,21.80
2023-02-05T14:39:07.051Z,22.65
2023-02-05T14:41:52.310Z,48.95
2023-02-05T14:44:26.048Z,61.58
2023-02-05T14:47:10.402Z,39.42
2023-02-05T14:49:44.367Z,23.40
2023-02-05T14:52:30.366Z,25.40
2023-02-05T14:55:05.926Z,26.00
2023-02-05T14:57:43.929Z,23.30
2023-02-05T15:00:41.913Z,23.52
2023-02-05T15:03:33.019Z,23.60
2023-02-05T15:06:09.038Z,22.27
2023-02-05T15:08:44.593Z,23.50
2023-02-05T15:11:25.599Z,21.63
2023-02-05T15:14:43.952Z,23.52
2023-02-05T15:17:51.681Z,22.55
2023-02-05T15:20:37.570Z,21.55
2023-02-05T15:23:22.205Z,22.35
2023-02-05T15:26:01.685Z,23.55
2023-02-05T15:28:42.159Z,24.25
2023-02-05T15:31:34.319Z,25.05
2023-02-05T15:34:44.620Z,24.70
2023-02-05T15:37:24.026Z,21.52
2023-02-05T15:39:59.268Z,22.02
2023-02-05T15:42:36.421Z,20.67
2023-02-05T15:45:24.605Z,21.55
2023-02-05T15:48:01.776Z,22.92
2023-02-05T15:50:41.619Z,19.88
2023-02-05T15:53:11.868Z,20.65
2023-02-05T15:55:44.380Z,29.65
2023-02-05T15:58:15.363Z,26.15
2023-02-05T16:01:12.718Z,26.95
2023-02-05T16:03:45.777Z,25.25
2023-02-05T16:06:31.705Z,41.88
2023-02-05T16:09:03.101Z,28.38
2023-02-05T16:11:45.269Z,26.30
2023-02-05T16:14:30.242Z,23.17
2023-02-05T16:17:35.466Z,22.45
2023-02-05T16:20:38.227Z,32.20
2023-02-05T16:23:20.853Z,34.03
2023-02-05T16:25:59.184Z,27.08
2023-02-05T16:28:37.952Z,24.40
2023-02-05T16:31:15.312Z,27.08
2023-02-05T16:33:49.904Z,30.98
2023-02-05T16:36:23.402Z,45.00
2023-02-05T16:38:57.966Z,28.17
2023-02-05T16:41:40.544Z,28.67
2023-02-05T16:44:28.022Z,30.65
2023-02-05T16:47:14.547Z,29.60
2023-02-05T16:49:58.206Z,26.83
2023-02-05T16:52:33.421Z,25.30
2023-02-05T16:55:36.804Z,24.45
2023-02-05T16:58:12.090Z,25.25
2023-02-05T17:00:44.724Z,22.20
2023-02-05T17:03:26.121Z,22.17
2023-02-05T17:06:09.810Z,23.65
2023-02-05T17:08:41.684Z,23.58
2023-02-05T17:11:34.514Z,26.17
2023-02-05T17:14:28.032Z,23.45
2023-02-05T17:17:02.380Z,24.67
2023-02-05T17:19:41.907Z,22.98
2023-02-05T17:22:27.819Z,24.38
2023-02-05T17:25:00.392Z,25.70
2023-02-05T17:27:40.217Z,27.05
2023-02-05T17:30:23.878Z,28.83
2023-02-05T17:33:03.577Z,27.42
2023-02-05T17:35:34.060Z,28.15
2023-02-05T17:38:02.602Z,30.05
2023-02-05T17:40:33.568Z,27.15
2023-02-05T17:43:02.421Z,25.27
2023-02-05T17:45:35.807Z,32.78
2023-02-05T17:48:07.660Z,28.17
2023-02-05T17:50:37.796Z,27.15
2023-02-05T17:53:06.266Z,25.25
2023-02-05T17:55:37.842Z,28.63
2023-02-05T17:58:09.122Z,25.10
2023-02-05T18:00:39.293Z,26.83
2023-02-05T18:03:24.918Z,25.65
2023-02-05T18:06:04.275Z,27.23
2023-02-05T18:08:45.402Z,23.88
2023-02-05T18:11:51.364Z,24.60
2023-02-05T18:14:31.223Z,25.65
2023-02-05T18:17:08.409Z,24.05
2023-02-05T18:23:31.369Z,24.35
2023-02-05T18:26:19.774Z,25.15
2023-02-05T18:29:43.637Z,24.77
2023-02-05T18:32:55.006Z,24.95
2023-02-05T18:35:37.221Z,25.05
2023-02-05T18:38:13.675Z,25.50
2023-02-05T18:40:43.836Z,24.23
2023-02-05T18:43:20.283Z,24.70
2023-02-05T18:45:57.006Z,24.98
2023-02-05T18:51:32.543Z,22.27
2023-02-05T18:54:19.170Z,23.05
2023-02-05T18:57:03.476Z,23.45
2023-02-05T18:59:34.602Z,26.33
2023-02-05T19:02:05.681Z,24.40
2023-02-05T19:04:53.880Z,24.58
2023-02-05T19:07:47.321Z,25.27
2023-02-05T19:10:35.508Z,25.10
2023-02-05T19:13:09.536Z,24.38
2023-02-05T19:16:03.801Z,23.10
2023-02-05T19:18:39.240Z,24.20
2023-02-05T19:21:15.668Z,23.60
2023-02-05T19:23:51.778Z,22.90
2023-02-05T19:26:22.178Z,23.48
2023-02-05T19:28:56.635Z,22.98
2023-02-05T19:31:31.574Z,25.50
2023-02-05T19:34:04.235Z,24.85
2023-02-05T19:36:41.403Z,26.90
2023-02-05T19:39:15.116Z,26.95
2023-02-05T19:41:48.113Z,27.60
2023-02-05T19:44:22.464Z,27.35
2023-02-05T19:46:56.961Z,27.80
2023-02-05T19:49:31.426Z,25.67
2023-02-05T19:52:10.890Z,24.90
2023-02-05T19:54:49.103Z,24.88
2023-02-05T19:57:23.451Z,24.33
2023-02-05T20:00:10.788Z,22.25
2023-02-05T20:02:43.840Z,24.38
2023-02-05T20:05:15.303Z,26.85
2023-02-05T20:07:46.767Z,26.05
2023-02-05T20:10:20.390Z,27.27
2023-02-05T20:13:10.458Z,28.95
2023-02-05T20:15:42.022Z,25.50
2023-02-05T20:18:13.659Z,30.38
2023-02-05T20:20:46.738Z,38.60
2023-02-05T20:23:18.386Z,27.98
2023-02-05T20:25:59.148Z,30.90
2023-02-05T20:28:38.550Z,26.75
2023-02-05T20:35:04.060Z,22.65
2023-02-05T20:37:48.801Z,22.95
2023-02-05T20:40:51.177Z,24.33
2023-02-05T20:44:12.938Z,29.25
2023-02-05T20:50:02.200Z,28.25
2023-02-05T20:56:23.786Z,34.50
2023-02-05T20:59:35.598Z,25.17
2023-02-05T21:02:30.709Z,37.75
2023-02-05T21:05:18.570Z,34.10
2023-02-05T21:08:05.810Z,26.75
2023-02-05T21:21:25.364Z,23.88
2023-02-05T21:24:12.250Z,25.88
2023-02-05T21:27:11.786Z,24.80
2023-02-05T21:33:08.008Z,21.35
2023-02-05T21:35:46.367Z,20.65
2023-02-05T21:38:50.548Z,23.08
2023-02-05T21:41:34.797Z,20.80
2023-02-05T21:44:08.195Z,20.77
2023-02-05T21:46:41.792Z,21.13
2023-02-05T21:49:14.562Z,20.67
2023-02-05T21:51:48.560Z,20.70
2023-02-05T21:54:18.337Z,21.15
2023-02-05T21:56:47.897Z,22.25
2023-02-05T21:59:19.172Z,20.85
2023-02-05T22:01:49.290Z,21.10
2023-02-05T22:04:21.350Z,21.58
2023-02-05T22:06:52.339Z,23.45
2023-02-05T22:09:21.411Z,22.02
2023-02-05T22:11:52.023Z,22.63
2023-02-05T22:14:24.072Z,22.08
2023-02-05T22:16:58.734Z,29.48
2023-02-05T22:19:41.123Z,23.88
2023-02-05T22:22:12.355Z,20.08
2023-02-05T22:24:45.477Z,28.05
2023-02-05T22:27:46.900Z,23.70
2023-02-05T22:30:26.544Z,19.48
2023-02-05T22:33:32.644Z,20.65
2023-02-05T22:36:12.212Z,23.25
2023-02-05T22:38:50.384Z,21.95
2023-02-05T22:41:48.160Z,23.63
2023-02-05T22:44:34.223Z,23.15
2023-02-05T22:47:48.795Z,21.90
2023-02-05T22:50:10.625Z,22.27
2023-02-05T22:52:55.193Z,24.33
2023-02-05T22:55:30.299Z,24.95
2023-02-05T22:58:00.381Z,26.80
2023-02-05T23:00:34.636Z,27.42
2023-02-05T23:03:25.367Z,27.45
2023-02-05T23:05:54.429Z,30.25
2023-02-05T23:08:26.296Z,28.25
2023-02-05T23:10:57.519Z,24.75
2023-02-05T23:13:26.029Z,27.35
2023-02-05T23:15:55.678Z,28.50
2023-02-05T23:21:57.596Z,24.80
2023-02-05T23:24:59.507Z,23.83
2023-02-05T23:28:11.827Z,17.88
2023-02-05T23:30:47.134Z,19.92
2023-02-05T23:33:22.000Z,18.85
2023-02-05T23:35:51.856Z,18.95
2023-02-05T23:38:21.021Z,18.38
2023-02-05T23:43:41.442Z,18.48
2023-02-05T23:46:13.160Z,19.90
2023-02-05T23:48:47.858Z,18.15
2023-02-05T23:51:29.678Z,17.85
2023-02-05T23:54:01.125Z,19.52
2023-02-05T23:56:36.296Z,21.83
2023-02-05T23:59:06.204Z,20.25
